sensor_id;sensor_type;location;lat;lon;timestamp;pressure;altitude;pressure_sealevel;temperature;humidity
57234;BME280;43090;52.604;13.318;2023-08-21T00:00:06;101647.63;;;21.88;91.95
57234;BME280;43090;52.604;13.318;2023-08-21T00:02:33;101660.44;;;21.95;91.47
57234;BME280;43090;52.604;13.318;2023-08-21T00:04:59;101655.69;;;21.98;91.96
57234;BME280;43090;52.604;13.318;2023-08-21T00:07:26;101653.88;;;21.80;92.74
57234;BME280;43090;52.604;13.318;2023-08-21T00:09:52;101660.44;;;21.95;92.35
57234;BME280;43090;52.604;13.318;2023-08-21T00:12:19;101657.50;;;21.89;91.99
57234;BME280;43090;52.604;13.318;2023-08-21T00:14:45;101649.06;;;22.00;90.73
57234;BME280;43090;52.604;13.318;2023-08-21T00:17:12;101648.22;;;22.08;90.32
57234;BME280;43090;52.604;13.318;2023-08-21T00:19:38;101650.28;;;22.06;90.07
57234;BME280;43090;52.604;13.318;2023-08-21T00:22:05;101648.16;;;21.91;91.12
57234;BME280;43090;52.604;13.318;2023-08-21T00:24:31;101658.34;;;21.89;91.44
57234;BME280;43090;52.604;13.318;2023-08-21T00:26:58;101656.69;;;21.88;92.33
57234;BME280;43090;52.604;13.318;2023-08-21T00:29:24;101642.97;;;21.80;92.13
57234;BME280;43090;52.604;13.318;2023-08-21T00:31:51;101653.28;;;21.94;91.21
57234;BME280;43090;52.604;13.318;2023-08-21T00:34:17;101638.31;;;21.72;91.49
57234;BME280;43090;52.604;13.318;2023-08-21T00:36:44;101636.34;;;21.56;93.09
57234;BME280;43090;52.604;13.318;2023-08-21T00:39:10;101656.97;;;21.85;92.46
57234;BME280;43090;52.604;13.318;2023-08-21T00:41:36;101656.81;;;21.87;91.94
57234;BME280;43090;52.604;13.318;2023-08-21T00:44:03;101658.94;;;21.75;92.65
57234;BME280;43090;52.604;13.318;2023-08-21T00:46:31;101649.97;;;21.83;92.10
57234;BME280;43090;52.604;13.318;2023-08-21T00:48:58;101649.50;;;21.87;91.87
57234;BME280;43090;52.604;13.318;2023-08-21T00:51:24;101661.84;;;22.00;91.19
57234;BME280;43090;52.604;13.318;2023-08-21T00:53:51;101646.88;;;21.77;92.03
57234;BME280;43090;52.604;13.318;2023-08-21T00:56:17;101646.25;;;21.84;91.75
57234;BME280;43090;52.604;13.318;2023-08-21T00:58:44;101639.78;;;21.58;93.49
57234;BME280;43090;52.604;13.318;2023-08-21T01:01:12;101655.66;;;21.45;94.42
57234;BME280;43090;52.604;13.318;2023-08-21T01:03:41;101647.00;;;21.50;94.94
57234;BME280;43090;52.604;13.318;2023-08-21T01:06:07;101649.34;;;21.62;94.71
57234;BME280;43090;52.604;13.318;2023-08-21T01:08:42;101643.38;;;21.41;96.12
57234;BME280;43090;52.604;13.318;2023-08-21T01:11:21;101659.88;;;21.57;95.96
57234;BME280;43090;52.604;13.318;2023-08-21T01:14:14;101647.25;;;21.56;96.02
57234;BME280;43090;52.604;13.318;2023-08-21T01:16:43;101648.16;;;21.65;95.60
57234;BME280;43090;52.604;13.318;2023-08-21T01:19:21;101648.25;;;21.82;94.69
57234;BME280;43090;52.604;13.318;2023-08-21T01:21:51;101648.91;;;21.75;94.50
57234;BME280;43090;52.604;13.318;2023-08-21T01:24:19;101641.78;;;21.83;94.08
57234;BME280;43090;52.604;13.318;2023-08-21T01:26:45;101646.78;;;21.61;95.91
57234;BME280;43090;52.604;13.318;2023-08-21T01:29:12;101637.44;;;21.45;96.89
57234;BME280;43090;52.604;13.318;2023-08-21T01:31:39;101634.94;;;21.52;97.19
57234;BME280;43090;52.604;13.318;2023-08-21T01:34:09;101632.81;;;21.64;96.09
57234;BME280;43090;52.604;13.318;2023-08-21T01:52:29;101617.94;;;20.60;100.00
57234;BME280;43090;52.604;13.318;2023-08-21T01:54:56;101619.69;;;20.97;100.00
57234;BME280;43090;52.604;13.318;2023-08-21T01:57:22;101622.31;;;21.25;100.00
57234;BME280;43090;52.604;13.318;2023-08-21T01:59:49;101613.47;;;21.49;100.00
57234;BME280;43090;52.604;13.318;2023-08-21T02:02:15;101627.53;;;21.62;100.00
57234;BME280;43090;52.604;13.318;2023-08-21T02:04:42;101633.75;;;21.73;100.00
57234;BME280;43090;52.604;13.318;2023-08-21T02:07:08;101631.78;;;21.83;98.54
57234;BME280;43090;52.604;13.318;2023-08-21T02:09:35;101625.75;;;21.53;100.00
57234;BME280;43090;52.604;13.318;2023-08-21T02:12:01;101625.03;;;21.69;100.00
57234;BME280;43090;52.604;13.318;2023-08-21T02:14:28;101632.13;;;21.88;99.13
57234;BME280;43090;52.604;13.318;2023-08-21T02:16:54;101629.19;;;21.82;99.30
57234;BME280;43090;52.604;13.318;2023-08-21T02:19:21;101628.72;;;21.86;98.75
57234;BME280;43090;52.604;13.318;2023-08-21T02:21:47;101624.09;;;21.87;98.38
57234;BME280;43090;52.604;13.318;2023-08-21T02:24:14;101613.50;;;21.75;99.08
57234;BME280;43090;52.604;13.318;2023-08-21T02:26:40;101612.81;;;21.82;98.73
57234;BME280;43090;52.604;13.318;2023-08-21T02:29:08;101616.47;;;21.90;98.17
57234;BME280;43090;52.604;13.318;2023-08-21T02:31:35;101620.53;;;21.86;98.01
57234;BME280;43090;52.604;13.318;2023-08-21T02:34:01;101610.94;;;21.74;98.38
57234;BME280;43090;52.604;13.318;2023-08-21T02:36:28;101630.09;;;21.90;97.31
57234;BME280;43090;52.604;13.318;2023-08-21T02:38:55;101624.22;;;21.77;98.13
57234;BME280;43090;52.604;13.318;2023-08-21T02:41:22;101625.34;;;21.92;97.20
57234;BME280;43090;52.604;13.318;2023-08-21T02:43:49;101631.03;;;22.07;96.13
57234;BME280;43090;52.604;13.318;2023-08-21T02:46:16;101627.75;;;22.04;95.54
57234;BME280;43090;52.604;13.318;2023-08-21T02:48:43;101620.94;;;22.00;96.23
57234;BME280;43090;52.604;13.318;2023-08-21T02:51:10;101637.28;;;22.00;96.30
57234;BME280;43090;52.604;13.318;2023-08-21T02:56:24;101610.94;;;21.74;96.93
57234;BME280;43090;52.604;13.318;2023-08-21T02:58:50;101636.44;;;21.99;96.77
57234;BME280;43090;52.604;13.318;2023-08-21T03:01:17;101634.69;;;21.90;96.96
57234;BME280;43090;52.604;13.318;2023-08-21T03:03:45;101634.03;;;21.96;96.82
57234;BME280;43090;52.604;13.318;2023-08-21T03:06:11;101631.84;;;22.00;96.48
57234;BME280;43090;52.604;13.318;2023-08-21T03:08:38;101634.94;;;22.05;96.43
57234;BME280;43090;52.604;13.318;2023-08-21T03:11:04;101628.13;;;22.09;95.48
57234;BME280;43090;52.604;13.318;2023-08-21T03:13:31;101623.09;;;21.88;97.07
57234;BME280;43090;52.604;13.318;2023-08-21T03:15:57;101635.75;;;21.97;96.64
57234;BME280;43090;52.604;13.318;2023-08-21T03:18:24;101632.72;;;22.00;96.03
57234;BME280;43090;52.604;13.318;2023-08-21T03:20:53;101614.44;;;21.92;95.63
57234;BME280;43090;52.604;13.318;2023-08-21T03:23:19;101618.50;;;21.88;94.69
57234;BME280;43090;52.604;13.318;2023-08-21T03:25:46;101611.34;;;21.87;95.08
57234;BME280;43090;52.604;13.318;2023-08-21T03:28:12;101601.88;;;21.73;95.08
57234;BME280;43090;52.604;13.318;2023-08-21T03:30:39;101614.38;;;21.84;95.21
57234;BME280;43090;52.604;13.318;2023-08-21T03:33:06;101619.69;;;21.86;95.34
57234;BME280;43090;52.604;13.318;2023-08-21T03:35:33;101603.16;;;21.87;94.44
57234;BME280;43090;52.604;13.318;2023-08-21T03:38:00;101617.44;;;21.81;93.51
57234;BME280;43090;52.604;13.318;2023-08-21T03:40:26;101603.84;;;21.63;94.83
57234;BME280;43090;52.604;13.318;2023-08-21T03:42:53;101620.88;;;21.83;93.61
57234;BME280;43090;52.604;13.318;2023-08-21T03:45:19;101610.84;;;21.66;94.20
57234;BME280;43090;52.604;13.318;2023-08-21T03:47:46;101608.31;;;21.64;94.83
57234;BME280;43090;52.604;13.318;2023-08-21T03:50:12;101620.13;;;21.73;94.54
57234;BME280;43090;52.604;13.318;2023-08-21T03:52:39;101616.09;;;21.59;95.14
57234;BME280;43090;52.604;13.318;2023-08-21T03:55:06;101612.19;;;21.61;94.27
57234;BME280;43090;52.604;13.318;2023-08-21T03:57:32;101627.22;;;21.66;94.34
57234;BME280;43090;52.604;13.318;2023-08-21T03:59:59;101628.56;;;21.61;94.50
57234;BME280;43090;52.604;13.318;2023-08-21T04:02:25;101630.81;;;21.66;94.31
57234;BME280;43090;52.604;13.318;2023-08-21T04:04:52;101637.31;;;21.73;93.18
57234;BME280;43090;52.604;13.318;2023-08-21T04:07:18;101623.19;;;21.52;93.78
57234;BME280;43090;52.604;13.318;2023-08-21T04:09:45;101635.19;;;21.59;93.51
57234;BME280;43090;52.604;13.318;2023-08-21T04:12:11;101637.97;;;21.67;92.94
57234;BME280;43090;52.604;13.318;2023-08-21T04:14:39;101633.00;;;21.62;93.52
57234;BME280;43090;52.604;13.318;2023-08-21T04:17:05;101631.44;;;21.60;93.59
57234;BME280;43090;52.604;13.318;2023-08-21T04:19:32;101637.91;;;21.59;93.51
57234;BME280;43090;52.604;13.318;2023-08-21T04:22:00;101638.69;;;21.51;93.78
57234;BME280;43090;52.604;13.318;2023-08-21T04:24:26;101645.06;;;21.60;92.53
57234;BME280;43090;52.604;13.318;2023-08-21T04:26:53;101660.25;;;21.62;92.91
57234;BME280;43090;52.604;13.318;2023-08-21T04:29:19;101663.28;;;21.59;93.39
57234;BME280;43090;52.604;13.318;2023-08-21T04:31:46;101663.69;;;21.65;94.20
57234;BME280;43090;52.604;13.318;2023-08-21T04:34:12;101665.44;;;21.74;93.31
57234;BME280;43090;52.604;13.318;2023-08-21T04:36:39;101664.47;;;21.57;94.72
57234;BME280;43090;52.604;13.318;2023-08-21T04:39:05;101647.28;;;21.38;94.70
57234;BME280;43090;52.604;13.318;2023-08-21T04:41:32;101666.03;;;21.59;95.03
57234;BME280;43090;52.604;13.318;2023-08-21T04:43:58;101674.09;;;21.69;93.99
57234;BME280;43090;52.604;13.318;2023-08-21T04:46:26;101661.16;;;21.71;93.63
57234;BME280;43090;52.604;13.318;2023-08-21T04:48:53;101660.19;;;21.80;93.79
57234;BME280;43090;52.604;13.318;2023-08-21T04:51:19;101669.56;;;21.78;94.10
57234;BME280;43090;52.604;13.318;2023-08-21T04:53:46;101663.34;;;21.68;94.62
57234;BME280;43090;52.604;13.318;2023-08-21T04:56:13;101676.75;;;21.87;93.64
57234;BME280;43090;52.604;13.318;2023-08-21T04:58:39;101677.22;;;21.83;94.11
57234;BME280;43090;52.604;13.318;2023-08-21T05:01:06;101676.00;;;21.77;94.04
57234;BME280;43090;52.604;13.318;2023-08-21T05:03:32;101676.25;;;21.92;93.63
57234;BME280;43090;52.604;13.318;2023-08-21T05:05:59;101682.75;;;21.91;93.18
57234;BME280;43090;52.604;13.318;2023-08-21T05:08:26;101675.09;;;21.94;94.09
57234;BME280;43090;52.604;13.318;2023-08-21T05:10:57;101674.25;;;21.94;93.77
57234;BME280;43090;52.604;13.318;2023-08-21T05:13:23;101677.00;;;22.02;93.15
57234;BME280;43090;52.604;13.318;2023-08-21T05:15:57;101676.16;;;22.02;92.88
57234;BME280;43090;52.604;13.318;2023-08-21T05:18:25;101680.25;;;21.98;93.04
57234;BME280;43090;52.604;13.318;2023-08-21T05:20:54;101668.97;;;21.92;95.33
57234;BME280;43090;52.604;13.318;2023-08-21T05:23:21;101667.66;;;22.05;94.52
57234;BME280;43090;52.604;13.318;2023-08-21T05:25:50;101668.69;;;22.12;95.04
57234;BME280;43090;52.604;13.318;2023-08-21T05:28:19;101674.22;;;22.20;94.88
57234;BME280;43090;52.604;13.318;2023-08-21T05:30:46;101671.53;;;22.28;94.82
57234;BME280;43090;52.604;13.318;2023-08-21T05:33:12;101654.75;;;22.15;95.19
57234;BME280;43090;52.604;13.318;2023-08-21T05:35:39;101672.06;;;22.32;95.29
57234;BME280;43090;52.604;13.318;2023-08-21T05:38:05;101666.34;;;22.17;94.69
57234;BME280;43090;52.604;13.318;2023-08-21T05:40:32;101640.63;;;22.20;94.32
57234;BME280;43090;52.604;13.318;2023-08-21T05:42:58;101655.22;;;22.37;93.21
57234;BME280;43090;52.604;13.318;2023-08-21T05:45:25;101651.34;;;22.21;94.29
57234;BME280;43090;52.604;13.318;2023-08-21T05:47:51;101670.41;;;22.39;93.46
57234;BME280;43090;52.604;13.318;2023-08-21T05:50:18;101683.69;;;22.42;93.09
57234;BME280;43090;52.604;13.318;2023-08-21T05:52:44;101682.78;;;22.25;94.02
57234;BME280;43090;52.604;13.318;2023-08-21T05:55:11;101695.44;;;22.35;93.40
57234;BME280;43090;52.604;13.318;2023-08-21T05:57:38;101696.84;;;22.39;93.13
57234;BME280;43090;52.604;13.318;2023-08-21T06:00:05;101700.25;;;22.41;92.79
57234;BME280;43090;52.604;13.318;2023-08-21T06:02:34;101705.06;;;22.55;93.02
57234;BME280;43090;52.604;13.318;2023-08-21T06:05:01;101700.50;;;22.64;92.84
57234;BME280;43090;52.604;13.318;2023-08-21T06:07:29;101699.84;;;22.70;92.38
57234;BME280;43090;52.604;13.318;2023-08-21T06:09:56;101694.22;;;22.72;91.14
57234;BME280;43090;52.604;13.318;2023-08-21T06:12:22;101702.38;;;22.63;91.35
57234;BME280;43090;52.604;13.318;2023-08-21T06:14:49;101705.44;;;22.60;90.64
57234;BME280;43090;52.604;13.318;2023-08-21T06:17:15;101709.50;;;22.48;90.77
57234;BME280;43090;52.604;13.318;2023-08-21T06:19:42;101711.91;;;22.59;91.12
57234;BME280;43090;52.604;13.318;2023-08-21T06:22:08;101709.72;;;22.28;93.78
57234;BME280;43090;52.604;13.318;2023-08-21T06:24:35;101709.88;;;22.53;92.56
57234;BME280;43090;52.604;13.318;2023-08-21T06:27:01;101703.28;;;22.03;93.94
57234;BME280;43090;52.604;13.318;2023-08-21T06:29:31;101707.78;;;22.47;91.78
57234;BME280;43090;52.604;13.318;2023-08-21T06:31:57;101703.88;;;22.50;91.55
57234;BME280;43090;52.604;13.318;2023-08-21T06:34:24;101711.97;;;22.68;90.73
57234;BME280;43090;52.604;13.318;2023-08-21T06:36:50;101708.34;;;22.59;91.74
57234;BME280;43090;52.604;13.318;2023-08-21T06:39:17;101729.00;;;22.70;90.84
57234;BME280;43090;52.604;13.318;2023-08-21T06:41:43;101720.34;;;22.74;90.80
57234;BME280;43090;52.604;13.318;2023-08-21T06:44:10;101717.47;;;22.84;90.05
57234;BME280;43090;52.604;13.318;2023-08-21T06:46:36;101724.63;;;22.85;89.41
57234;BME280;43090;52.604;13.318;2023-08-21T06:49:03;101719.19;;;22.85;90.33
57234;BME280;43090;52.604;13.318;2023-08-21T06:51:30;101723.63;;;22.94;90.52
57234;BME280;43090;52.604;13.318;2023-08-21T06:53:57;101719.53;;;22.90;90.62
57234;BME280;43090;52.604;13.318;2023-08-21T06:56:23;101721.31;;;23.16;90.14
57234;BME280;43090;52.604;13.318;2023-08-21T06:58:50;101721.97;;;23.10;90.33
57234;BME280;43090;52.604;13.318;2023-08-21T07:01:16;101714.47;;;23.20;87.25
57234;BME280;43090;52.604;13.318;2023-08-21T07:03:43;101719.78;;;23.22;87.76
57234;BME280;43090;52.604;13.318;2023-08-21T07:06:10;101709.38;;;23.25;85.41
57234;BME280;43090;52.604;13.318;2023-08-21T07:08:36;101704.94;;;23.49;84.43
57234;BME280;43090;52.604;13.318;2023-08-21T07:11:04;101695.03;;;23.48;84.13
57234;BME280;43090;52.604;13.318;2023-08-21T07:13:30;101704.94;;;23.49;83.76
57234;BME280;43090;52.604;13.318;2023-08-21T07:15:57;101708.88;;;23.38;86.23
57234;BME280;43090;52.604;13.318;2023-08-21T07:18:23;101703.41;;;23.38;84.08
57234;BME280;43090;52.604;13.318;2023-08-21T07:20:53;101725.59;;;23.52;84.93
57234;BME280;43090;52.604;13.318;2023-08-21T07:28:01;101725.59;;;23.60;82.03
57234;BME280;43090;52.604;13.318;2023-08-21T07:30:29;101709.19;;;23.27;78.45
57234;BME280;43090;52.604;13.318;2023-08-21T07:36:50;101721.34;;;23.41;76.42
57234;BME280;43090;52.604;13.318;2023-08-21T07:39:16;101730.03;;;23.36;78.78
57234;BME280;43090;52.604;13.318;2023-08-21T07:41:43;101721.34;;;23.41;76.26
57234;BME280;43090;52.604;13.318;2023-08-21T07:44:09;101731.78;;;23.54;74.74
57234;BME280;43090;52.604;13.318;2023-08-21T07:47:03;101738.59;;;23.58;75.67
57234;BME280;43090;52.604;13.318;2023-08-21T07:49:41;101730.56;;;23.40;75.42
57234;BME280;43090;52.604;13.318;2023-08-21T07:52:08;101722.03;;;23.59;75.29
57234;BME280;43090;52.604;13.318;2023-08-21T07:54:35;101732.75;;;24.02;74.24
57234;BME280;43090;52.604;13.318;2023-08-21T07:57:01;101718.56;;;24.07;73.97
57234;BME280;43090;52.604;13.318;2023-08-21T07:59:30;101724.16;;;24.22;74.31
57234;BME280;43090;52.604;13.318;2023-08-21T08:02:06;101739.06;;;23.86;69.51
57234;BME280;43090;52.604;13.318;2023-08-21T08:04:45;101722.34;;;23.73;65.01
57234;BME280;43090;52.604;13.318;2023-08-21T08:07:12;101723.22;;;23.90;66.56
57234;BME280;43090;52.604;13.318;2023-08-21T08:09:41;101719.06;;;24.10;62.91
57234;BME280;43090;52.604;13.318;2023-08-21T08:12:08;101725.75;;;24.64;62.99
57234;BME280;43090;52.604;13.318;2023-08-21T08:14:35;101730.81;;;25.07;56.33
57234;BME280;43090;52.604;13.318;2023-08-21T08:17:01;101734.38;;;25.77;55.02
57234;BME280;43090;52.604;13.318;2023-08-21T08:19:28;101723.81;;;25.89;56.16
57234;BME280;43090;52.604;13.318;2023-08-21T08:21:54;101738.19;;;26.74;53.88
57234;BME280;43090;52.604;13.318;2023-08-21T08:24:21;101733.81;;;26.35;52.05
57234;BME280;43090;52.604;13.318;2023-08-21T08:26:50;101742.47;;;25.93;47.52
57234;BME280;43090;52.604;13.318;2023-08-21T08:29:17;101731.69;;;25.92;51.88
57234;BME280;43090;52.604;13.318;2023-08-21T08:31:43;101745.75;;;25.89;48.76
57234;BME280;43090;52.604;13.318;2023-08-21T08:34:35;101741.53;;;25.17;46.39
57234;BME280;43090;52.604;13.318;2023-08-21T08:37:19;101734.63;;;25.52;48.08
57234;BME280;43090;52.604;13.318;2023-08-21T08:39:51;101742.84;;;25.52;52.15
57234;BME280;43090;52.604;13.318;2023-08-21T08:42:36;101719.84;;;25.07;49.73
57234;BME280;43090;52.604;13.318;2023-08-21T08:45:04;101724.00;;;25.49;48.29
57234;BME280;43090;52.604;13.318;2023-08-21T08:47:32;101704.25;;;25.39;49.26
57234;BME280;43090;52.604;13.318;2023-08-21T08:50:10;101726.88;;;25.33;49.51
57234;BME280;43090;52.604;13.318;2023-08-21T08:52:38;101729.28;;;25.74;49.13
57234;BME280;43090;52.604;13.318;2023-08-21T08:55:06;101737.09;;;25.62;45.28
57234;BME280;43090;52.604;13.318;2023-08-21T08:57:33;101742.75;;;25.46;48.87
57234;BME280;43090;52.604;13.318;2023-08-21T09:00:01;101724.81;;;25.58;48.77
57234;BME280;43090;52.604;13.318;2023-08-21T09:02:28;101736.31;;;25.53;51.72
57234;BME280;43090;52.604;13.318;2023-08-21T09:04:57;101739.00;;;25.61;49.28
57234;BME280;43090;52.604;13.318;2023-08-21T09:07:28;101730.00;;;25.30;49.59
57234;BME280;43090;52.604;13.318;2023-08-21T09:09:54;101734.00;;;26.03;48.29
57234;BME280;43090;52.604;13.318;2023-08-21T09:12:21;101730.19;;;25.89;51.36
57234;BME280;43090;52.604;13.318;2023-08-21T09:14:48;101720.88;;;25.90;49.52
57234;BME280;43090;52.604;13.318;2023-08-21T09:17:15;101724.41;;;25.84;46.36
57234;BME280;43090;52.604;13.318;2023-08-21T09:19:43;101736.84;;;25.72;46.95
57234;BME280;43090;52.604;13.318;2023-08-21T09:22:15;101749.00;;;25.54;49.41
57234;BME280;43090;52.604;13.318;2023-08-21T09:25:00;101736.84;;;25.72;46.02
57234;BME280;43090;52.604;13.318;2023-08-21T09:27:26;101728.25;;;25.37;47.49
57234;BME280;43090;52.604;13.318;2023-08-21T09:29:53;101737.72;;;25.49;46.67
57234;BME280;43090;52.604;13.318;2023-08-21T09:32:20;101728.91;;;25.39;47.27
57234;BME280;43090;52.604;13.318;2023-08-21T09:34:46;101733.56;;;25.53;47.87
57234;BME280;43090;52.604;13.318;2023-08-21T09:37:13;101736.28;;;25.38;47.41
57234;BME280;43090;52.604;13.318;2023-08-21T09:39:39;101726.56;;;25.27;51.22
57234;BME280;43090;52.604;13.318;2023-08-21T09:42:07;101732.72;;;25.30;52.01
57234;BME280;43090;52.604;13.318;2023-08-21T09:44:38;101731.34;;;25.25;49.15
57234;BME280;43090;52.604;13.318;2023-08-21T09:47:08;101724.84;;;25.26;51.10
57234;BME280;43090;52.604;13.318;2023-08-21T09:49:36;101731.06;;;25.20;48.53
57234;BME280;43090;52.604;13.318;2023-08-21T09:52:08;101729.94;;;25.38;49.24
57234;BME280;43090;52.604;13.318;2023-08-21T09:54:37;101733.63;;;25.22;49.88
57234;BME280;43090;52.604;13.318;2023-08-21T09:57:04;101729.47;;;25.03;50.71
57234;BME280;43090;52.604;13.318;2023-08-21T09:59:31;101723.50;;;25.22;47.86
57234;BME280;43090;52.604;13.318;2023-08-21T10:02:00;101716.19;;;25.61;49.30
57234;BME280;43090;52.604;13.318;2023-08-21T10:04:31;101716.81;;;25.25;50.02
57234;BME280;43090;52.604;13.318;2023-08-21T10:07:00;101715.16;;;25.62;48.12
57234;BME280;43090;52.604;13.318;2023-08-21T10:09:29;101716.34;;;25.83;47.79
57234;BME280;43090;52.604;13.318;2023-08-21T10:11:57;101716.78;;;25.56;47.59
57234;BME280;43090;52.604;13.318;2023-08-21T10:14:24;101726.25;;;26.07;49.16
57234;BME280;43090;52.604;13.318;2023-08-21T10:16:54;101716.78;;;26.24;46.04
57234;BME280;43090;52.604;13.318;2023-08-21T10:19:20;101710.16;;;26.04;46.93
57234;BME280;43090;52.604;13.318;2023-08-21T10:21:47;101714.97;;;26.17;48.88
57234;BME280;43090;52.604;13.318;2023-08-21T10:24:34;101720.94;;;25.67;48.83
57234;BME280;43090;52.604;13.318;2023-08-21T10:27:08;101714.94;;;25.87;48.08
57234;BME280;43090;52.604;13.318;2023-08-21T10:29:35;101704.50;;;25.82;48.78
57234;BME280;43090;52.604;13.318;2023-08-21T10:32:04;101710.16;;;26.04;49.33
57234;BME280;43090;52.604;13.318;2023-08-21T10:34:33;101722.09;;;26.11;50.43
57234;BME280;43090;52.604;13.318;2023-08-21T10:37:10;101727.28;;;26.06;47.69
57234;BME280;43090;52.604;13.318;2023-08-21T10:39:40;101721.78;;;26.06;49.57
57234;BME280;43090;52.604;13.318;2023-08-21T10:42:36;101710.34;;;26.32;48.33
57234;BME280;43090;52.604;13.318;2023-08-21T10:45:10;101715.94;;;26.09;47.65
57234;BME280;43090;52.604;13.318;2023-08-21T10:51:34;101715.53;;;25.97;49.37
57234;BME280;43090;52.604;13.318;2023-08-21T10:54:10;101722.66;;;26.06;45.95
57234;BME280;43090;52.604;13.318;2023-08-21T10:56:37;101725.56;;;26.05;47.67
57234;BME280;43090;52.604;13.318;2023-08-21T10:59:04;101721.16;;;26.04;48.66
57234;BME280;43090;52.604;13.318;2023-08-21T11:01:44;101720.44;;;26.02;50.19
57234;BME280;43090;52.604;13.318;2023-08-21T11:04:12;101729.66;;;25.71;50.18
57234;BME280;43090;52.604;13.318;2023-08-21T11:06:39;101728.56;;;25.80;51.03
57234;BME280;43090;52.604;13.318;2023-08-21T11:09:12;101735.25;;;26.16;50.81
57234;BME280;43090;52.604;13.318;2023-08-21T11:11:39;101724.88;;;26.03;50.74
57234;BME280;43090;52.604;13.318;2023-08-21T11:17:37;101709.25;;;25.73;51.66
57234;BME280;43090;52.604;13.318;2023-08-21T11:20:09;101713.75;;;25.66;54.43
57234;BME280;43090;52.604;13.318;2023-08-21T11:22:35;101717.47;;;25.73;51.85
57234;BME280;43090;52.604;13.318;2023-08-21T11:25:02;101724.19;;;26.09;49.94
57234;BME280;43090;52.604;13.318;2023-08-21T11:27:30;101722.31;;;25.86;48.64
57234;BME280;43090;52.604;13.318;2023-08-21T11:29:57;101726.97;;;26.01;50.36
57234;BME280;43090;52.604;13.318;2023-08-21T11:32:24;101716.31;;;26.06;49.58
57234;BME280;43090;52.604;13.318;2023-08-21T11:34:51;101720.94;;;26.20;49.41
57234;BME280;43090;52.604;13.318;2023-08-21T11:37:22;101723.88;;;26.34;47.88
57234;BME280;43090;52.604;13.318;2023-08-21T11:39:54;101728.25;;;26.13;45.76
57234;BME280;43090;52.604;13.318;2023-08-21T11:42:31;101715.59;;;25.89;47.93
57234;BME280;43090;52.604;13.318;2023-08-21T11:44:59;101716.38;;;25.98;50.65
57234;BME280;43090;52.604;13.318;2023-08-21T11:47:32;101711.69;;;26.21;49.68
57234;BME280;43090;52.604;13.318;2023-08-21T11:50:07;101711.28;;;26.24;48.54
57234;BME280;43090;52.604;13.318;2023-08-21T11:52:36;101722.06;;;26.26;47.73
57234;BME280;43090;52.604;13.318;2023-08-21T11:55:08;101719.91;;;26.21;46.75
57234;BME280;43090;52.604;13.318;2023-08-21T11:57:50;101719.34;;;26.11;45.64
57234;BME280;43090;52.604;13.318;2023-08-21T12:00:19;101707.44;;;26.04;48.53
57234;BME280;43090;52.604;13.318;2023-08-21T12:05:27;101715.69;;;25.95;51.36
57234;BME280;43090;52.604;13.318;2023-08-21T12:07:54;101715.44;;;25.52;51.04
57234;BME280;43090;52.604;13.318;2023-08-21T12:10:29;101718.34;;;25.89;47.24
57234;BME280;43090;52.604;13.318;2023-08-21T12:19:05;101694.16;;;25.54;48.34
57234;BME280;43090;52.604;13.318;2023-08-21T12:21:39;101712.44;;;25.62;49.00
57234;BME280;43090;52.604;13.318;2023-08-21T12:24:06;101706.75;;;25.64;51.47
57234;BME280;43090;52.604;13.318;2023-08-21T12:26:33;101703.81;;;26.03;50.55
57234;BME280;43090;52.604;13.318;2023-08-21T12:29:15;101703.47;;;26.06;51.59
57234;BME280;43090;52.604;13.318;2023-08-21T12:31:41;101711.00;;;26.04;51.19
57234;BME280;43090;52.604;13.318;2023-08-21T12:34:08;101704.81;;;26.02;52.07
57234;BME280;43090;52.604;13.318;2023-08-21T12:36:35;101707.75;;;26.01;54.37
57234;BME280;43090;52.604;13.318;2023-08-21T12:39:03;101712.28;;;25.78;51.83
57234;BME280;43090;52.604;13.318;2023-08-21T12:41:31;101691.19;;;25.41;54.05
57234;BME280;43090;52.604;13.318;2023-08-21T12:44:00;101694.94;;;25.63;49.73
57234;BME280;43090;52.604;13.318;2023-08-21T12:46:26;101684.84;;;25.17;53.45
57234;BME280;43090;52.604;13.318;2023-08-21T12:48:56;101686.44;;;25.35;48.55
57234;BME280;43090;52.604;13.318;2023-08-21T12:51:23;101688.56;;;25.24;56.77
57234;BME280;43090;52.604;13.318;2023-08-21T12:53:57;101683.28;;;25.46;53.47
57234;BME280;43090;52.604;13.318;2023-08-21T12:56:28;101691.69;;;25.44;50.30
57234;BME280;43090;52.604;13.318;2023-08-21T12:58:55;101711.00;;;25.66;47.26
57234;BME280;43090;52.604;13.318;2023-08-21T13:01:21;101709.16;;;25.43;54.39
57234;BME280;43090;52.604;13.318;2023-08-21T13:03:48;101689.56;;;25.85;52.69
57234;BME280;43090;52.604;13.318;2023-08-21T13:06:15;101698.63;;;26.08;50.22
57234;BME280;43090;52.604;13.318;2023-08-21T13:08:41;101690.94;;;26.19;47.00
57234;BME280;43090;52.604;13.318;2023-08-21T13:11:08;101686.69;;;26.16;47.94
57234;BME280;43090;52.604;13.318;2023-08-21T13:13:36;101711.00;;;26.19;49.20
57234;BME280;43090;52.604;13.318;2023-08-21T13:16:03;101713.94;;;26.48;47.25
57234;BME280;43090;52.604;13.318;2023-08-21T13:18:30;101709.97;;;26.20;48.06
57234;BME280;43090;52.604;13.318;2023-08-21T13:20:56;101724.50;;;25.91;45.54
57234;BME280;43090;52.604;13.318;2023-08-21T13:23:23;101704.50;;;25.82;47.65
57234;BME280;43090;52.604;13.318;2023-08-21T13:25:49;101708.38;;;26.11;46.98
57234;BME280;43090;52.604;13.318;2023-08-21T13:28:16;101706.44;;;25.97;48.96